createdAt,value
2018-07-28T00:00:43.741Z,4.8
2018-07-28T00:01:59.577Z,4.6
2018-07-28T00:03:15.504Z,4.8
2018-07-28T00:04:31.386Z,4.7
2018-07-28T00:05:47.277Z,4.4
2018-07-28T00:07:03.169Z,4.5
2018-07-28T00:08:19.102Z,33.5
2018-07-28T00:09:34.987Z,90.900002
2018-07-28T00:10:50.887Z,104.3
2018-07-28T00:12:06.756Z,28
2018-07-28T00:13:22.663Z,10.6
2018-07-28T00:14:38.623Z,6
2018-07-28T00:15:54.504Z,6.2
2018-07-28T00:17:10.384Z,5.2
2018-07-28T00:18:26.264Z,5.3
2018-07-28T00:19:42.174Z,5.4
2018-07-28T00:20:58.156Z,5.1
2018-07-28T00:22:14.028Z,5.1
2018-07-28T00:23:29.923Z,5.6
2018-07-28T00:24:46.806Z,5.2
2018-07-28T00:26:02.664Z,4.7
2018-07-28T00:27:18.522Z,5.1
2018-07-28T00:28:34.402Z,5.1
2018-07-28T00:29:50.289Z,5.1
2018-07-28T00:31:06.182Z,5.3
2018-07-28T00:32:22.049Z,5.1
2018-07-28T00:33:37.932Z,5.2
2018-07-28T00:34:53.854Z,5.1
2018-07-28T00:36:09.713Z,5.2
2018-07-28T00:37:25.600Z,4.8
2018-07-28T00:38:41.453Z,4.8
2018-07-28T00:39:57.329Z,4.7
2018-07-28T00:41:13.212Z,4.7
2018-07-28T00:42:29.082Z,5.5
2018-07-28T00:43:44.957Z,4.8
2018-07-28T00:45:00.842Z,5.2
2018-07-28T00:46:16.740Z,5.2
2018-07-28T00:47:32.636Z,5.4
2018-07-28T00:48:48.476Z,5
2018-07-28T00:50:04.369Z,4.8
2018-07-28T00:51:20.221Z,5
2018-07-28T00:52:36.107Z,5
2018-07-28T00:53:51.979Z,5.1
2018-07-28T00:55:07.916Z,5.1
2018-07-28T00:56:23.760Z,5.3
2018-07-28T00:57:39.622Z,4.9
2018-07-28T00:58:55.480Z,4.8
2018-07-28T01:00:11.385Z,5.1
2018-07-28T01:01:27.246Z,4.9
2018-07-28T01:02:43.149Z,4.8
2018-07-28T01:03:59.026Z,5
2018-07-28T01:05:14.931Z,4.9
2018-07-28T01:06:30.831Z,5.2
2018-07-28T01:07:46.747Z,5
2018-07-28T01:09:02.637Z,5.1
2018-07-28T01:10:18.545Z,5.1
2018-07-28T01:11:34.440Z,5.5
2018-07-28T01:12:50.329Z,4.9
2018-07-28T01:14:07.207Z,5
2018-07-28T01:15:23.104Z,5.2
2018-07-28T01:16:38.953Z,5.4
2018-07-28T01:17:54.822Z,5
2018-07-28T01:19:10.693Z,5.2
2018-07-28T01:20:26.578Z,5.1
2018-07-28T01:21:42.489Z,5.3
2018-07-28T01:22:58.431Z,4.9
2018-07-28T01:24:14.324Z,5.3
2018-07-28T01:25:30.221Z,5
2018-07-28T01:26:46.153Z,5.5
2018-07-28T01:28:02.044Z,5
2018-07-28T01:29:17.944Z,5.2
2018-07-28T01:30:33.834Z,5.4
2018-07-28T01:31:49.706Z,5.5
2018-07-28T01:33:05.561Z,5.3
2018-07-28T01:34:21.464Z,4.9
2018-07-28T01:35:37.324Z,5.1
2018-07-28T01:36:53.167Z,5.3
2018-07-28T01:38:09.021Z,5.2
2018-07-28T01:39:24.959Z,5.2
2018-07-28T01:40:40.835Z,5.2
2018-07-28T01:41:56.698Z,5
2018-07-28T01:43:12.598Z,5
2018-07-28T01:44:28.477Z,4.7
2018-07-28T01:45:44.358Z,4.9
2018-07-28T01:47:00.241Z,5.1
2018-07-28T01:48:16.117Z,5.4
2018-07-28T01:49:32.079Z,5.4
2018-07-28T01:50:47.882Z,5.3
2018-07-28T01:52:03.792Z,5.3
2018-07-28T01:53:19.682Z,5.5
2018-07-28T01:54:35.560Z,5.8
2018-07-28T01:55:51.444Z,5.5
2018-07-28T01:57:07.340Z,5.2
2018-07-28T01:58:23.206Z,4.9
2018-07-28T01:59:39.143Z,5.5
2018-07-28T02:00:55.023Z,5.5
2018-07-28T02:02:10.894Z,5.7
2018-07-28T02:03:26.772Z,5.4
2018-07-28T02:04:42.655Z,5.4
2018-07-28T02:05:58.565Z,5.3
2018-07-28T02:07:14.463Z,5.3
2018-07-28T02:08:30.341Z,4.8
2018-07-28T02:09:46.206Z,5.2
2018-07-28T02:11:02.110Z,5.7
2018-07-28T02:12:17.974Z,4.9
2018-07-28T02:13:33.830Z,5.8
2018-07-28T02:14:49.694Z,5
2018-07-28T02:16:05.588Z,5.2
2018-07-28T02:17:21.485Z,5.4
2018-07-28T02:18:37.378Z,5.2
2018-07-28T02:19:53.269Z,5.4
2018-07-28T02:21:09.148Z,5.2
2018-07-28T02:22:24.996Z,5
2018-07-28T02:23:40.882Z,5.4
2018-07-28T02:24:56.756Z,5.4
2018-07-28T02:26:12.650Z,5.1
2018-07-28T02:27:28.529Z,5.1
2018-07-28T02:28:44.409Z,5.3
2018-07-28T02:30:00.257Z,5
2018-07-28T02:31:16.125Z,4.9
2018-07-28T02:32:31.997Z,4.9
2018-07-28T02:33:47.883Z,5.2
2018-07-28T02:35:03.722Z,5.1
2018-07-28T02:36:19.593Z,5
2018-07-28T02:37:35.482Z,5.3
2018-07-28T02:38:51.336Z,5.3
2018-07-28T02:40:07.201Z,4.9
2018-07-28T02:41:23.099Z,5.1
2018-07-28T02:42:38.986Z,5.2
2018-07-28T02:43:55.849Z,5.6
2018-07-28T02:45:11.729Z,5.7
2018-07-28T02:46:27.611Z,5.8
2018-07-28T02:47:43.499Z,5.7
2018-07-28T02:48:59.373Z,5.6
2018-07-28T02:50:15.233Z,5.5
2018-07-28T02:51:31.072Z,5.6
2018-07-28T02:52:46.965Z,5.6
2018-07-28T02:54:02.803Z,5.5
2018-07-28T02:55:18.674Z,5.2
2018-07-28T02:56:34.553Z,5.5
2018-07-28T02:57:50.454Z,5.6
2018-07-28T02:59:06.314Z,5.7
2018-07-28T03:00:22.330Z,6
2018-07-28T03:01:38.067Z,5.6
2018-07-28T03:02:53.987Z,5.6
2018-07-28T03:04:09.866Z,5.7
2018-07-28T03:05:26.728Z,5.7
2018-07-28T03:06:42.577Z,5.9
2018-07-28T03:07:58.477Z,5.7
2018-07-28T03:09:14.328Z,5.2
2018-07-28T03:10:30.224Z,5.3
2018-07-28T03:11:46.093Z,5.6
2018-07-28T03:13:01.992Z,5.5
2018-07-28T03:14:17.886Z,6.2
2018-07-28T03:15:33.757Z,6.2
2018-07-28T03:16:49.609Z,5.8
2018-07-28T03:18:05.534Z,5.7
2018-07-28T03:19:21.422Z,5.9
2018-07-28T03:20:37.310Z,6.1
2018-07-28T03:21:53.161Z,6
2018-07-28T03:23:09.042Z,6.2
2018-07-28T03:24:24.901Z,6.9
2018-07-28T03:25:40.766Z,6.8
2018-07-28T03:26:56.636Z,7.5
2018-07-28T03:28:12.503Z,7
2018-07-28T03:29:28.373Z,6.6
2018-07-28T03:30:44.261Z,6.4
2018-07-28T03:32:00.133Z,6.3
2018-07-28T03:33:16.022Z,7
2018-07-28T03:34:31.869Z,7
2018-07-28T03:35:47.737Z,6.4
2018-07-28T03:37:03.621Z,6.8
2018-07-28T03:38:19.532Z,6.5
2018-07-28T03:39:35.377Z,6.4
2018-07-28T03:40:51.273Z,6.5
2018-07-28T03:42:07.147Z,6.5
2018-07-28T03:43:23.065Z,6.7
2018-07-28T03:44:38.925Z,8
2018-07-28T03:45:54.797Z,7.7
2018-07-28T03:47:10.668Z,7.5
2018-07-28T03:48:26.587Z,7.2
2018-07-28T03:49:42.445Z,7
2018-07-28T03:50:58.334Z,6.9
2018-07-28T03:52:15.167Z,7.3
2018-07-28T03:53:31.075Z,7.1
2018-07-28T03:54:46.974Z,7.3
2018-07-28T03:56:02.852Z,7.1
2018-07-28T03:57:18.709Z,7.3
2018-07-28T03:58:34.576Z,7
2018-07-28T03:59:50.491Z,7.9
2018-07-28T04:01:06.388Z,7.3
2018-07-28T04:02:22.264Z,7.1
2018-07-28T04:03:38.137Z,6.9
2018-07-28T04:04:53.989Z,6.6
2018-07-28T04:06:09.908Z,7.2
2018-07-28T04:07:25.783Z,6.7
2018-07-28T04:08:41.653Z,7.1
2018-07-28T04:09:57.533Z,6.6
2018-07-28T04:11:13.415Z,6.8
2018-07-28T04:12:29.285Z,6.6
2018-07-28T04:13:45.139Z,6.7
2018-07-28T04:15:01.003Z,6.3
2018-07-28T04:16:16.869Z,6.5
2018-07-28T04:17:32.718Z,6.6
2018-07-28T04:18:48.580Z,6.5
2018-07-28T04:20:04.484Z,6.5
2018-07-28T04:21:20.351Z,6.4
2018-07-28T04:22:36.305Z,6.8
2018-07-28T04:23:52.166Z,6.2
2018-07-28T04:25:08.052Z,6.7
2018-07-28T04:26:23.918Z,6.3
2018-07-28T04:27:39.801Z,6.2
2018-07-28T04:28:55.658Z,6.2
2018-07-28T04:30:11.557Z,6.2
2018-07-28T04:31:27.409Z,6.5
2018-07-28T04:32:43.280Z,6
2018-07-28T04:33:59.142Z,6.1
2018-07-28T04:36:59.779Z,5.8
2018-07-28T04:38:15.610Z,5.8
2018-07-28T04:39:31.464Z,6.5
2018-07-28T04:40:47.315Z,6.4
2018-07-28T04:42:03.184Z,6.4
2018-07-28T04:43:19.054Z,6.3
2018-07-28T04:44:34.909Z,6.5
2018-07-28T04:45:50.762Z,6.6
2018-07-28T04:47:06.658Z,6.4
2018-07-28T04:48:22.561Z,6.6
2018-07-28T04:49:38.453Z,6.4
2018-07-28T04:50:54.332Z,6.6
2018-07-28T04:52:10.235Z,6.4
2018-07-28T04:53:26.096Z,6.3
2018-07-28T04:54:42.103Z,6.3
2018-07-28T04:55:57.954Z,6.6
2018-07-28T04:57:13.873Z,7.3
2018-07-28T04:58:29.740Z,6.2
2018-07-28T04:59:45.594Z,6.5
2018-07-28T05:01:01.468Z,6.3
2018-07-28T05:02:17.370Z,6.9
2018-07-28T05:03:33.251Z,6.2
2018-07-28T05:04:49.124Z,7
2018-07-28T05:06:04.976Z,6.7
2018-07-28T05:07:20.959Z,6.5
2018-07-28T05:08:36.774Z,6.4
2018-07-28T05:09:52.638Z,6.3
2018-07-28T05:11:08.503Z,6.6
2018-07-28T05:12:24.380Z,6.3
2018-07-28T05:13:40.258Z,6
2018-07-28T05:14:56.117Z,6
2018-07-28T05:16:12.000Z,6.2
2018-07-28T05:17:27.892Z,6.2
2018-07-28T05:18:43.793Z,6.2
2018-07-28T05:19:59.677Z,6.3
2018-07-28T05:21:15.554Z,6.6
2018-07-28T05:22:31.467Z,6.3
2018-07-28T05:23:47.393Z,6.2
2018-07-28T05:25:03.245Z,6.4
2018-07-28T05:26:19.129Z,6.6
2018-07-28T05:27:35.039Z,5.7
2018-07-28T05:28:50.935Z,6.4
2018-07-28T05:30:06.787Z,5.8
2018-07-28T05:31:22.671Z,6.5
2018-07-28T05:32:38.565Z,6.9
2018-07-28T05:33:54.486Z,6.8
2018-07-28T05:35:10.388Z,6.7
2018-07-28T05:36:26.278Z,6.9
2018-07-28T05:37:42.170Z,6.7
2018-07-28T05:38:58.176Z,7
2018-07-28T05:40:13.978Z,7
2018-07-28T05:41:29.873Z,7.3
2018-07-28T05:42:45.768Z,7.1
2018-07-28T05:44:01.819Z,6.8
2018-07-28T05:45:17.859Z,6.6
2018-07-28T05:46:33.735Z,6.8
2018-07-28T05:47:49.654Z,6.7
2018-07-28T05:49:05.541Z,6.9
2018-07-28T05:50:21.560Z,6.8
2018-07-28T05:51:37.507Z,6.9
2018-07-28T05:52:53.378Z,6.6
2018-07-28T05:54:09.316Z,6.5
2018-07-28T05:55:25.214Z,6.6
2018-07-28T05:56:41.118Z,6.6
2018-07-28T05:57:57.006Z,6.4
2018-07-28T05:59:12.963Z,6.4
2018-07-28T06:00:28.871Z,6.4
2018-07-28T06:01:44.772Z,6.9
2018-07-28T06:03:00.680Z,6.4
2018-07-28T06:04:16.627Z,6.4
2018-07-28T06:05:32.534Z,6.8
2018-07-28T06:06:48.435Z,6.8
2018-07-28T06:08:04.287Z,7
2018-07-28T06:09:20.168Z,6.6
2018-07-28T06:10:36.075Z,7.4
2018-07-28T06:11:52.056Z,6.1
2018-07-28T06:13:07.934Z,6.9
2018-07-28T06:14:23.864Z,6.6
2018-07-28T06:15:39.750Z,6.2
2018-07-28T06:16:55.609Z,6.1
2018-07-28T06:18:11.494Z,5.9
2018-07-28T06:19:27.406Z,6.3
2018-07-28T06:20:43.314Z,6.5
2018-07-28T06:21:59.207Z,6
2018-07-28T06:23:15.077Z,6.4
2018-07-28T06:24:31.000Z,7.8
2018-07-28T06:25:46.899Z,8.6
2018-07-28T06:27:02.832Z,8.5
2018-07-28T06:28:19.748Z,8.8
2018-07-28T06:29:35.601Z,7.7
2018-07-28T06:30:51.498Z,6.9
2018-07-28T06:32:07.463Z,6.6
2018-07-28T06:33:23.394Z,6.1
2018-07-28T06:34:39.283Z,5.9
2018-07-28T06:35:55.215Z,5.7
2018-07-28T06:37:11.104Z,6
2018-07-28T06:38:27.001Z,5.7
2018-07-28T06:39:42.889Z,6
2018-07-28T06:40:58.835Z,5.4
2018-07-28T06:42:14.755Z,6
2018-07-28T06:43:30.733Z,6.3
2018-07-28T06:44:46.640Z,6.4
2018-07-28T06:46:02.556Z,5.8
2018-07-28T06:47:18.518Z,5.6
2018-07-28T06:48:34.412Z,5.7
2018-07-28T06:49:50.396Z,5.3
2018-07-28T06:51:06.326Z,5.2
2018-07-28T06:52:22.261Z,5.4
2018-07-28T06:53:38.282Z,5.2
2018-07-28T06:54:54.207Z,5.5
2018-07-28T06:56:10.147Z,5.6
2018-07-28T06:57:27.097Z,5.8
2018-07-28T06:58:42.983Z,5.8
2018-07-28T06:59:58.876Z,6
2018-07-28T07:01:14.812Z,5.9
2018-07-28T07:02:30.770Z,5.5
2018-07-28T07:03:46.818Z,5.3
2018-07-28T07:05:02.749Z,5.9
2018-07-28T07:06:18.670Z,6
2018-07-28T07:07:34.676Z,6.4
2018-07-28T07:08:50.577Z,6.6
2018-07-28T07:10:06.513Z,6.6
2018-07-28T07:11:22.418Z,7.6
2018-07-28T07:12:38.426Z,7.1
2018-07-28T07:13:54.454Z,7.7
2018-07-28T07:15:10.342Z,7.3
2018-07-28T07:16:26.283Z,6.6
2018-07-28T07:17:42.257Z,6.5
2018-07-28T07:18:59.161Z,7.7
2018-07-28T07:20:15.100Z,7.6
2018-07-28T07:21:31.032Z,7.6
2018-07-28T07:22:46.995Z,6.6
2018-07-28T07:24:02.918Z,7
2018-07-28T07:25:18.918Z,7.3
2018-07-28T07:26:34.831Z,6.7
2018-07-28T07:27:50.763Z,6.8
2018-07-28T07:29:06.692Z,6.6
2018-07-28T07:30:22.561Z,6.5
2018-07-28T07:31:38.500Z,7.3
2018-07-28T07:32:54.448Z,7
2018-07-28T07:34:10.366Z,7
2018-07-28T07:35:26.288Z,6.6
2018-07-28T07:36:42.290Z,6.5
2018-07-28T07:37:59.335Z,6.4
2018-07-28T07:39:15.263Z,6.7
2018-07-28T07:40:31.526Z,6.6
2018-07-28T07:41:47.436Z,6.9
2018-07-28T07:43:03.395Z,6.5
2018-07-28T07:44:19.355Z,6.6
2018-07-28T07:45:35.311Z,6.9
2018-07-28T07:46:51.298Z,7.6
2018-07-28T07:48:07.256Z,6.8
2018-07-28T07:49:23.313Z,7.1
2018-07-28T07:50:39.257Z,7.1
2018-07-28T07:51:55.348Z,6.8
2018-07-28T07:53:12.423Z,7.3
2018-07-28T07:54:28.464Z,7.5
2018-07-28T07:55:44.428Z,7
2018-07-28T07:57:00.343Z,7.7
2018-07-28T07:58:16.354Z,7.6
2018-07-28T07:59:32.321Z,7.1
2018-07-28T08:00:48.214Z,7.6
2018-07-28T08:02:04.127Z,7.4
2018-07-28T08:03:20.090Z,7.7
2018-07-28T08:04:35.951Z,7.4
2018-07-28T08:05:51.945Z,7.1
2018-07-28T08:07:07.871Z,6.9
2018-07-28T08:08:23.802Z,7
2018-07-28T08:09:39.685Z,7.2
2018-07-28T08:10:55.582Z,6.6
2018-07-28T08:12:11.520Z,6.6
2018-07-28T08:13:27.520Z,6.8
2018-07-28T08:14:43.511Z,6.4
2018-07-28T08:15:59.402Z,6.5
2018-07-28T08:17:15.407Z,6.3
2018-07-28T08:18:31.356Z,6.6
2018-07-28T08:19:47.254Z,6.1
2018-07-28T08:21:03.281Z,5.9
2018-07-28T08:22:19.155Z,6.2
2018-07-28T08:23:35.053Z,6.3
2018-07-28T08:24:50.929Z,6.1
2018-07-28T08:26:06.861Z,6
2018-07-28T08:27:22.798Z,6.5
2018-07-28T08:28:38.663Z,6
2018-07-28T08:29:54.601Z,6.1
2018-07-28T08:31:10.550Z,6.3
2018-07-28T08:32:26.464Z,5.8
2018-07-28T08:33:42.345Z,5.6
2018-07-28T08:34:58.257Z,5.8
2018-07-28T08:36:14.192Z,5.7
2018-07-28T08:37:30.063Z,5.4
2018-07-28T08:38:46.084Z,5.6
2018-07-28T08:40:02.114Z,5.6
2018-07-28T08:41:17.962Z,5.5
2018-07-28T08:42:33.882Z,5.4
2018-07-28T08:43:49.840Z,5.2
2018-07-28T08:45:05.772Z,5.5
2018-07-28T08:46:21.708Z,5.1
2018-07-28T08:47:37.640Z,5.2
2018-07-28T08:48:53.602Z,5.2
2018-07-28T08:50:09.481Z,5.2
2018-07-28T08:51:25.431Z,5
2018-07-28T08:52:41.340Z,5.4
2018-07-28T08:53:57.285Z,5.4
2018-07-28T08:55:13.230Z,5.4
2018-07-28T08:56:29.188Z,5.2
2018-07-28T08:57:45.080Z,5.1
2018-07-28T08:59:00.975Z,5.3
2018-07-28T09:00:16.925Z,4.9
2018-07-28T09:01:32.800Z,5.4
2018-07-28T09:02:48.787Z,5.6
2018-07-28T09:04:04.705Z,5.4
2018-07-28T09:05:20.675Z,5.2
2018-07-28T09:06:36.551Z,5.7
2018-07-28T09:07:52.514Z,5.1
2018-07-28T09:09:08.481Z,4.9
2018-07-28T09:10:24.399Z,5.3
2018-07-28T09:11:40.319Z,5.3
2018-07-28T09:12:56.220Z,5
2018-07-28T09:14:12.194Z,5.3
2018-07-28T09:15:28.090Z,4.4
2018-07-28T09:16:44.175Z,4.8
2018-07-28T09:18:00.219Z,4.6
2018-07-28T09:19:16.086Z,4.7
2018-07-28T09:20:32.086Z,4.8
2018-07-28T09:21:48.049Z,4.6
2018-07-28T09:23:04.007Z,4.4
2018-07-28T09:24:19.965Z,4.1
2018-07-28T09:25:35.917Z,5.2
2018-07-28T09:26:51.826Z,4.6
2018-07-28T09:28:07.768Z,4.6
2018-07-28T09:29:23.692Z,4.5
2018-07-28T09:30:39.684Z,4.7
2018-07-28T09:31:55.774Z,4.4
2018-07-28T09:33:11.694Z,4.2
2018-07-28T09:34:27.689Z,4.2
2018-07-28T09:35:43.633Z,4.7
2018-07-28T09:36:59.662Z,4.4
2018-07-28T09:38:15.576Z,4.2
2018-07-28T09:39:31.540Z,4.3
2018-07-28T09:40:47.441Z,3.8
2018-07-28T09:42:03.439Z,3.7
2018-07-28T09:43:19.372Z,4.1
2018-07-28T09:46:17.171Z,4
2018-07-28T09:47:33.137Z,4.2
2018-07-28T09:48:49.084Z,4.3
2018-07-28T09:50:05.056Z,4.4
2018-07-28T09:51:20.992Z,4.2
2018-07-28T09:52:36.929Z,4.2
2018-07-28T09:53:52.868Z,4.3
2018-07-28T09:55:08.859Z,4.2
2018-07-28T09:56:25.801Z,4
2018-07-28T09:57:41.803Z,4
2018-07-28T09:58:57.777Z,4
2018-07-28T10:01:58.245Z,3.9
2018-07-28T10:03:14.190Z,3.7
2018-07-28T10:04:30.115Z,3.8
2018-07-28T10:05:46.101Z,3.9
2018-07-28T10:07:02.050Z,3.7
2018-07-28T10:08:18.002Z,3.4
2018-07-28T10:09:33.925Z,3.3
2018-07-28T10:10:49.859Z,3.4
2018-07-28T10:12:05.742Z,3.6
2018-07-28T10:13:21.648Z,3.8
2018-07-28T10:14:37.572Z,3.7
2018-07-28T10:15:53.497Z,3.5
2018-07-28T10:17:09.495Z,3.3
2018-07-28T10:18:25.464Z,3.2
2018-07-28T10:19:41.351Z,3.1
2018-07-28T10:20:57.316Z,3.4
2018-07-28T10:22:13.250Z,3
2018-07-28T10:23:29.234Z,3.7
2018-07-28T10:24:45.163Z,3
2018-07-28T10:26:01.014Z,3.1
2018-07-28T10:27:16.946Z,3.2
2018-07-28T10:28:32.905Z,3.2
2018-07-28T10:29:48.819Z,3.3
2018-07-28T10:31:04.758Z,3.2
2018-07-28T10:32:20.705Z,3.4
2018-07-28T10:33:36.660Z,3.4
2018-07-28T10:34:52.580Z,3.6
2018-07-28T10:36:08.558Z,3.8
2018-07-28T10:37:24.493Z,3.4
2018-07-28T10:38:40.433Z,3.7
2018-07-28T10:39:56.348Z,4.3
2018-07-28T10:41:12.222Z,3.8
2018-07-28T10:42:28.137Z,3.8
2018-07-28T10:43:44.111Z,3.8
2018-07-28T10:45:00.013Z,4.6
2018-07-28T10:46:15.902Z,4.5
2018-07-28T10:47:31.780Z,4.2
2018-07-28T10:48:47.699Z,4.2
2018-07-28T10:50:03.597Z,4.1
2018-07-28T10:51:19.601Z,4.2
2018-07-28T10:52:35.468Z,3.9
2018-07-28T10:53:51.396Z,4.4
2018-07-28T10:55:07.312Z,4
2018-07-28T10:56:23.277Z,4
2018-07-28T10:57:39.176Z,4.2
2018-07-28T10:58:55.061Z,4
2018-07-28T11:00:11.002Z,4.1
2018-07-28T11:01:26.866Z,3.9
2018-07-28T11:02:42.810Z,3.6
2018-07-28T11:03:58.686Z,3.6
2018-07-28T11:05:14.635Z,3.8
2018-07-28T11:06:30.567Z,3.9
2018-07-28T11:07:46.509Z,3.7
2018-07-28T11:09:02.430Z,3.6
2018-07-28T11:10:18.432Z,4
2018-07-28T11:11:34.419Z,3.9
2018-07-28T11:12:50.326Z,3.8
2018-07-28T11:14:06.268Z,3.8
2018-07-28T11:15:22.177Z,3.6
2018-07-28T11:16:38.077Z,3.4
2018-07-28T11:19:34.880Z,3.8
2018-07-28T11:20:50.815Z,3.6
2018-07-28T11:22:06.733Z,3.9
2018-07-28T11:23:22.709Z,4
2018-07-28T11:24:38.635Z,3.9
2018-07-28T11:25:54.591Z,4.3
2018-07-28T11:27:10.458Z,2.7
2018-07-28T11:28:26.413Z,3.9
2018-07-28T11:29:42.366Z,3.7
2018-07-28T11:30:58.319Z,3.3
2018-07-28T11:32:14.281Z,3.3
2018-07-28T11:33:30.286Z,3.8
2018-07-28T11:34:46.233Z,3.2
2018-07-28T11:36:02.177Z,3.3
2018-07-28T11:37:18.101Z,3.4
2018-07-28T11:38:34.045Z,3.1
2018-07-28T11:39:50.011Z,3.5
2018-07-28T11:41:06.108Z,3.3
2018-07-28T11:42:22.006Z,3.2
2018-07-28T11:43:37.923Z,3.4
2018-07-28T11:44:53.887Z,3.1
2018-07-28T11:46:09.871Z,3.2
2018-07-28T11:47:25.802Z,4.2
2018-07-28T11:48:41.722Z,3.6
2018-07-28T11:49:58.697Z,3.3
2018-07-28T11:51:14.655Z,3.2
2018-07-28T11:52:30.553Z,3.3
2018-07-28T11:53:46.488Z,3.2
2018-07-28T11:55:02.425Z,3.3
2018-07-28T11:56:18.342Z,3.5
2018-07-28T11:57:35.241Z,3.3
2018-07-28T11:58:51.217Z,3.4
2018-07-28T12:00:07.113Z,3.4
2018-07-28T12:01:23.081Z,3.5
2018-07-28T12:02:38.969Z,3.8
2018-07-28T12:03:54.886Z,3.8
2018-07-28T12:05:10.927Z,3.9
2018-07-28T12:06:26.907Z,3.7
2018-07-28T12:07:42.836Z,3.7
2018-07-28T12:08:58.802Z,3.4
2018-07-28T12:10:14.690Z,3.6
2018-07-28T12:11:30.667Z,3.6
2018-07-28T12:12:46.540Z,3.9
2018-07-28T12:14:02.429Z,3.7
2018-07-28T12:15:18.350Z,3.9
2018-07-28T12:16:34.286Z,4
2018-07-28T12:17:50.172Z,3.8
2018-07-28T12:19:06.091Z,3.9
2018-07-28T12:20:22.088Z,4.2
2018-07-28T12:21:38.022Z,4
2018-07-28T12:22:53.934Z,3.7
2018-07-28T12:24:09.868Z,4.1
2018-07-28T12:25:25.825Z,4
2018-07-28T12:26:41.712Z,4.2
2018-07-28T12:27:57.641Z,4
2018-07-28T12:29:13.588Z,4
2018-07-28T12:30:29.521Z,4.3
2018-07-28T12:31:45.483Z,4.5
2018-07-28T12:33:01.396Z,4.4
2018-07-28T12:34:17.321Z,4.3
2018-07-28T12:35:33.227Z,4.6
2018-07-28T12:36:49.182Z,4.3
2018-07-28T12:38:05.098Z,4.3
2018-07-28T12:39:21.023Z,4.4
2018-07-28T12:40:36.978Z,4.5
2018-07-28T12:41:52.917Z,4.7
2018-07-28T12:43:08.889Z,4.8
2018-07-28T12:44:24.862Z,5
2018-07-28T12:45:40.760Z,4.9
2018-07-28T12:46:56.644Z,4.7
2018-07-28T12:48:12.801Z,5.1
2018-07-28T12:49:29.483Z,5
2018-07-28T12:50:45.805Z,5
2018-07-28T12:52:02.296Z,5.1
2018-07-28T12:53:18.251Z,5.1
2018-07-28T12:54:34.165Z,5.6
2018-07-28T12:55:50.122Z,5.1
2018-07-28T12:57:06.119Z,5.2
2018-07-28T12:58:22.039Z,5.1
2018-07-28T12:59:38.029Z,5
2018-07-28T13:00:53.946Z,5.3
2018-07-28T13:02:09.903Z,5
2018-07-28T13:03:25.848Z,5.1
2018-07-28T13:04:41.770Z,5.1
2018-07-28T13:05:57.729Z,5.4
2018-07-28T13:07:13.657Z,5.2
2018-07-28T13:08:29.654Z,5
2018-07-28T13:09:45.571Z,5
2018-07-28T13:11:01.471Z,5.2
2018-07-28T13:12:17.451Z,5.3
2018-07-28T13:13:33.450Z,5.2
2018-07-28T13:14:49.374Z,5.2
2018-07-28T13:16:05.252Z,5
2018-07-28T13:17:21.205Z,5.1
2018-07-28T13:18:37.121Z,5.3
2018-07-28T13:19:53.061Z,5.1
2018-07-28T13:21:08.979Z,5.2
2018-07-28T13:22:24.944Z,5.3
2018-07-28T13:23:41.011Z,4.9
2018-07-28T13:24:56.897Z,5
2018-07-28T13:26:12.805Z,4.9
2018-07-28T13:27:28.706Z,5.2
2018-07-28T13:28:44.648Z,5
2018-07-28T13:30:00.691Z,4.6
2018-07-28T13:31:16.652Z,4.9
2018-07-28T13:32:32.613Z,5.3
2018-07-28T13:33:48.512Z,4.9
2018-07-28T13:35:04.416Z,4.9
2018-07-28T13:36:20.371Z,5.1
2018-07-28T13:37:36.323Z,4.7
2018-07-28T13:38:52.631Z,4.9
2018-07-28T13:40:08.604Z,4.5
2018-07-28T13:41:24.528Z,5
2018-07-28T13:42:40.450Z,4.8
2018-07-28T13:43:56.344Z,4.8
2018-07-28T13:45:12.248Z,4.8
2018-07-28T13:46:28.205Z,5.3
2018-07-28T13:47:44.212Z,4.9
2018-07-28T13:49:00.081Z,5.2
2018-07-28T13:50:16.018Z,4.9
2018-07-28T13:51:31.969Z,5.6
2018-07-28T13:52:47.932Z,5.3
2018-07-28T13:54:03.839Z,5.4
2018-07-28T13:55:19.743Z,5
2018-07-28T13:56:35.676Z,5
2018-07-28T13:57:51.622Z,5.2
2018-07-28T13:59:07.584Z,5
2018-07-28T14:00:23.542Z,5
2018-07-28T14:01:39.440Z,5
2018-07-28T14:02:55.371Z,5.1
2018-07-28T14:04:11.338Z,5.1
2018-07-28T14:05:27.258Z,5.3
2018-07-28T14:06:43.218Z,5.2
2018-07-28T14:08:00.775Z,5.2
2018-07-28T14:09:17.056Z,4.9
2018-07-28T14:10:33.015Z,5.1
2018-07-28T14:11:48.942Z,4.8
2018-07-28T14:13:04.895Z,5.5
2018-07-28T14:16:01.600Z,4.8
2018-07-28T14:17:17.494Z,4.8
2018-07-28T14:18:33.514Z,4.8
2018-07-28T14:19:49.366Z,4.8
2018-07-28T14:21:05.261Z,4.8
2018-07-28T14:22:21.212Z,4.9
2018-07-28T14:23:37.195Z,5.1
2018-07-28T14:24:53.203Z,4.9
2018-07-28T14:26:09.038Z,5
2018-07-28T14:27:24.972Z,4.9
2018-07-28T14:28:40.981Z,5.2
2018-07-28T14:29:56.950Z,5
2018-07-28T14:31:12.880Z,4.9
2018-07-28T14:32:28.797Z,4.7
2018-07-28T14:33:44.734Z,5
2018-07-28T14:35:00.706Z,5
2018-07-28T14:36:16.595Z,5.2
2018-07-28T14:37:32.492Z,5.1
2018-07-28T14:38:48.374Z,4.8
2018-07-28T14:40:04.446Z,5.2
2018-07-28T14:41:20.373Z,4.8
2018-07-28T14:42:36.283Z,4.8
2018-07-28T14:43:52.261Z,4.7
2018-07-28T14:45:08.152Z,4.7
2018-07-28T14:46:24.028Z,5.1
2018-07-28T14:47:39.901Z,4.8
2018-07-28T14:48:55.841Z,4.4
2018-07-28T14:50:11.840Z,4.6
2018-07-28T14:51:27.744Z,4.3
2018-07-28T14:52:43.694Z,5
2018-07-28T14:53:59.623Z,4.9
2018-07-28T14:55:15.527Z,4.7
2018-07-28T14:56:31.466Z,4.7
2018-07-28T14:57:48.380Z,5
2018-07-28T14:59:04.305Z,4.6
2018-07-28T15:00:20.232Z,4.8
2018-07-28T15:01:36.136Z,5
2018-07-28T15:02:52.066Z,5.4
2018-07-28T15:04:07.998Z,5.1
2018-07-28T15:05:23.928Z,4.8
2018-07-28T15:06:39.892Z,4.8
2018-07-28T15:07:55.802Z,4.6
2018-07-28T15:09:11.770Z,4.6
2018-07-28T15:10:27.630Z,4.5
2018-07-28T15:11:43.533Z,4.8
2018-07-28T15:12:59.454Z,4.5
2018-07-28T15:14:15.391Z,4.2
2018-07-28T15:15:31.296Z,4.4
2018-07-28T15:16:47.343Z,4.7
2018-07-28T15:18:03.312Z,4.4
2018-07-28T15:19:19.296Z,4.3
2018-07-28T15:20:35.257Z,4.2
2018-07-28T15:21:51.460Z,4.1
2018-07-28T15:23:07.421Z,4
2018-07-28T15:24:23.418Z,4.1
2018-07-28T15:25:39.318Z,4.2
2018-07-28T15:26:55.263Z,4.2
2018-07-28T15:29:52.696Z,4.2
2018-07-28T15:31:08.615Z,4.5
2018-07-28T15:32:24.505Z,4.3
2018-07-28T15:33:40.459Z,4.7
2018-07-28T15:34:56.388Z,4.4
2018-07-28T15:36:12.304Z,5
2018-07-28T15:37:28.198Z,4.5
2018-07-28T15:38:44.150Z,4.8
2018-07-28T15:40:00.041Z,4.7
2018-07-28T15:41:15.948Z,4.5
2018-07-28T15:42:31.854Z,4.9
2018-07-28T15:43:47.811Z,4.9
2018-07-28T15:45:03.716Z,4.5
2018-07-28T15:46:19.642Z,4.5
2018-07-28T15:47:35.552Z,5.2
2018-07-28T15:48:51.575Z,4.9
2018-07-28T15:50:07.575Z,4.8
2018-07-28T15:51:23.595Z,4.6
2018-07-28T15:52:39.521Z,5.1
2018-07-28T15:55:27.226Z,5
2018-07-28T15:56:43.178Z,4.7
2018-07-28T15:57:59.076Z,5.2
2018-07-28T15:59:15.018Z,4.7
2018-07-28T16:00:31.031Z,4.8
2018-07-28T16:01:47.016Z,5.3
2018-07-28T16:03:02.860Z,4.8
2018-07-28T16:04:18.765Z,5.1
2018-07-28T16:05:34.698Z,4.8
2018-07-28T16:06:50.630Z,4.9
2018-07-28T16:08:06.573Z,5
2018-07-28T16:09:22.500Z,4.9
2018-07-28T16:10:38.444Z,4.3
2018-07-28T16:11:54.329Z,4.1
2018-07-28T16:13:10.211Z,4.3
2018-07-28T16:14:26.150Z,4
2018-07-28T16:15:42.063Z,3.9
2018-07-28T16:16:57.957Z,3.9
2018-07-28T16:18:13.878Z,4.1
2018-07-28T16:19:29.751Z,4.5
2018-07-28T16:20:45.677Z,4.2
2018-07-28T16:22:01.597Z,4.5
2018-07-28T16:23:17.500Z,4.1
2018-07-28T16:26:13.899Z,4.4
2018-07-28T16:27:29.762Z,4.4
2018-07-28T16:28:45.654Z,4.4
2018-07-28T16:30:01.541Z,4.4
2018-07-28T16:31:17.471Z,4.4
2018-07-28T16:32:33.369Z,4.6
2018-07-28T16:33:49.274Z,4.4
2018-07-28T16:35:05.202Z,4.6
2018-07-28T16:36:21.137Z,4.5
2018-07-28T16:37:37.029Z,4.8
2018-07-28T16:38:52.923Z,4.3
2018-07-28T16:40:08.880Z,4.5
2018-07-28T16:41:24.813Z,4.7
2018-07-28T16:42:40.784Z,4.5
2018-07-28T16:43:56.731Z,4.9
2018-07-28T16:45:12.652Z,6.4
2018-07-28T16:46:28.671Z,5.2
2018-07-28T16:47:44.536Z,4.9
2018-07-28T16:49:00.425Z,5.7
2018-07-28T16:50:16.325Z,5.5
2018-07-28T16:51:32.276Z,5.9
2018-07-28T16:52:48.208Z,5.3
2018-07-28T16:54:04.113Z,5.1
2018-07-28T16:55:20.027Z,5.2
2018-07-28T16:56:36.070Z,5.3
2018-07-28T16:57:51.986Z,4.8
2018-07-28T16:59:07.991Z,5.5
2018-07-28T17:00:23.899Z,5.5
2018-07-28T17:01:39.836Z,5.3
2018-07-28T17:02:56.730Z,5.4
2018-07-28T17:04:12.653Z,5.2
2018-07-28T17:05:28.722Z,5.2
2018-07-28T17:06:44.645Z,5.3
2018-07-28T17:08:00.567Z,5.4
2018-07-28T17:09:16.469Z,5.5
2018-07-28T17:10:32.395Z,5.1
2018-07-28T17:11:48.325Z,5.3
2018-07-28T17:13:04.418Z,5.3
2018-07-28T17:14:20.347Z,5.4
2018-07-28T17:15:36.467Z,5.5
2018-07-28T17:16:52.382Z,5.5
2018-07-28T17:18:08.298Z,5.5
2018-07-28T17:19:24.246Z,5.2
2018-07-28T17:20:40.183Z,5.3
2018-07-28T17:21:56.103Z,5.4
2018-07-28T17:23:12.197Z,6
2018-07-28T17:24:28.119Z,5.7
2018-07-28T17:25:44.034Z,6.4
2018-07-28T17:27:00.000Z,6.1
2018-07-28T17:28:15.951Z,6.3
2018-07-28T17:29:31.920Z,6.4
2018-07-28T17:30:47.996Z,5.7
2018-07-28T17:32:03.900Z,5.8
2018-07-28T17:33:19.844Z,5.4
2018-07-28T17:34:35.814Z,5.8
2018-07-28T17:35:51.733Z,5.9
2018-07-28T17:37:07.713Z,6.2
2018-07-28T17:38:23.685Z,5.7
2018-07-28T17:39:39.571Z,6.5
2018-07-28T17:40:55.596Z,7.2
2018-07-28T17:42:11.415Z,7
2018-07-28T17:43:27.427Z,6.7
2018-07-28T17:44:43.308Z,6.8
2018-07-28T17:45:59.263Z,7.2
2018-07-28T17:47:15.207Z,6.7